sensor_id;sensor_type;location;lat;lon;timestamp;temperature;humidity
21518;DHT22;61765;45.794;24.150;2023-04-24T00:02:06;16.90;77.80
21518;DHT22;61765;45.794;24.150;2023-04-24T00:10:16;17.10;77.00
21518;DHT22;61765;45.794;24.150;2023-04-24T00:18:21;17.00;76.80
21518;DHT22;61765;45.794;24.150;2023-04-24T00:26:29;16.50;77.60
21518;DHT22;61765;45.794;24.150;2023-04-24T00:34:35;16.50;77.10
21518;DHT22;61765;45.794;24.150;2023-04-24T00:42:43;16.70;76.30
21518;DHT22;61765;45.794;24.150;2023-04-24T00:50:49;16.60;76.60
21518;DHT22;61765;45.794;24.150;2023-04-24T00:58:58;16.80;75.60
21518;DHT22;61765;45.794;24.150;2023-04-24T01:07:04;16.80;75.70
21518;DHT22;61765;45.794;24.150;2023-04-24T01:15:18;16.50;75.80
21518;DHT22;61765;45.794;24.150;2023-04-24T01:23:26;16.50;76.40
21518;DHT22;61765;45.794;24.150;2023-04-24T01:31:32;16.60;75.80
21518;DHT22;61765;45.794;24.150;2023-04-24T01:39:41;16.40;76.40
21518;DHT22;61765;45.794;24.150;2023-04-24T01:47:47;16.00;77.60
21518;DHT22;61765;45.794;24.150;2023-04-24T01:55:55;15.70;78.60
21518;DHT22;61765;45.794;24.150;2023-04-24T02:04:00;15.40;79.50
21518;DHT22;61765;45.794;24.150;2023-04-24T02:12:09;15.60;78.80
21518;DHT22;61765;45.794;24.150;2023-04-24T02:20:14;15.50;78.90
21518;DHT22;61765;45.794;24.150;2023-04-24T02:28:22;15.60;78.40
21518;DHT22;61765;45.794;24.150;2023-04-24T02:36:28;15.60;78.50
21518;DHT22;61765;45.794;24.150;2023-04-24T02:44:36;15.40;79.00
21518;DHT22;61765;45.794;24.150;2023-04-24T02:52:43;15.10;79.50
21518;DHT22;61765;45.794;24.150;2023-04-24T03:00:53;15.20;79.40
21518;DHT22;61765;45.794;24.150;2023-04-24T03:08:59;15.40;78.90
21518;DHT22;61765;45.794;24.150;2023-04-24T03:17:09;15.60;78.40
21518;DHT22;61765;45.794;24.150;2023-04-24T03:25:14;15.50;78.60
21518;DHT22;61765;45.794;24.150;2023-04-24T03:33:23;15.60;78.40
21518;DHT22;61765;45.794;24.150;2023-04-24T03:41:34;15.70;77.50
21518;DHT22;61765;45.794;24.150;2023-04-24T03:49:54;15.90;77.00
21518;DHT22;61765;45.794;24.150;2023-04-24T03:57:59;16.00;76.70
21518;DHT22;61765;45.794;24.150;2023-04-24T04:06:07;16.00;77.30
21518;DHT22;61765;45.794;24.150;2023-04-24T04:14:15;16.00;77.60
21518;DHT22;61765;45.794;24.150;2023-04-24T04:22:25;15.90;78.00
21518;DHT22;61765;45.794;24.150;2023-04-24T04:30:34;16.00;77.70
21518;DHT22;61765;45.794;24.150;2023-04-24T04:38:43;16.40;77.30
21518;DHT22;61765;45.794;24.150;2023-04-24T04:47:01;16.70;76.50
21518;DHT22;61765;45.794;24.150;2023-04-24T04:55:13;17.20;76.20
21518;DHT22;61765;45.794;24.150;2023-04-24T05:03:37;17.40;75.20
21518;DHT22;61765;45.794;24.150;2023-04-24T05:11:49;17.70;73.80
21518;DHT22;61765;45.794;24.150;2023-04-24T05:19:56;18.00;74.10
21518;DHT22;61765;45.794;24.150;2023-04-24T05:28:07;18.40;73.40
21518;DHT22;61765;45.794;24.150;2023-04-24T05:36:13;19.10;72.50
21518;DHT22;61765;45.794;24.150;2023-04-24T05:44:21;19.70;70.80
21518;DHT22;61765;45.794;24.150;2023-04-24T05:52:28;20.50;69.90
21518;DHT22;61765;45.794;24.150;2023-04-24T06:00:38;21.00;68.30
21518;DHT22;61765;45.794;24.150;2023-04-24T06:08:46;21.20;68.00
21518;DHT22;61765;45.794;24.150;2023-04-24T06:16:55;21.60;67.00
21518;DHT22;61765;45.794;24.150;2023-04-24T06:25:10;22.40;64.40
21518;DHT22;61765;45.794;24.150;2023-04-24T06:33:18;22.00;60.80
21518;DHT22;61765;45.794;24.150;2023-04-24T06:41:25;21.60;59.10
21518;DHT22;61765;45.794;24.150;2023-04-24T06:49:33;22.20;58.30
21518;DHT22;61765;45.794;24.150;2023-04-24T06:57:39;22.10;58.10
21518;DHT22;61765;45.794;24.150;2023-04-24T07:05:48;22.60;57.60
21518;DHT22;61765;45.794;24.150;2023-04-24T07:13:55;22.50;57.00
21518;DHT22;61765;45.794;24.150;2023-04-24T07:22:03;21.80;59.00
21518;DHT22;61765;45.794;24.150;2023-04-24T07:30:10;21.50;59.90
21518;DHT22;61765;45.794;24.150;2023-04-24T07:38:18;21.00;63.80
21518;DHT22;61765;45.794;24.150;2023-04-24T07:46:29;20.10;66.80
21518;DHT22;61765;45.794;24.150;2023-04-24T07:54:38;20.20;66.10
21518;DHT22;61765;45.794;24.150;2023-04-24T08:02:44;20.10;65.80
21518;DHT22;61765;45.794;24.150;2023-04-24T08:10:52;21.00;63.20
21518;DHT22;61765;45.794;24.150;2023-04-24T08:18:59;20.50;62.60
21518;DHT22;61765;45.794;24.150;2023-04-24T08:27:08;21.60;61.40
21518;DHT22;61765;45.794;24.150;2023-04-24T08:35:14;22.40;58.10
21518;DHT22;61765;45.794;24.150;2023-04-24T08:43:22;22.80;57.40
21518;DHT22;61765;45.794;24.150;2023-04-24T08:51:29;23.10;56.60
21518;DHT22;61765;45.794;24.150;2023-04-24T08:59:39;23.00;56.10
21518;DHT22;61765;45.794;24.150;2023-04-24T09:07:48;22.90;56.30
21518;DHT22;61765;45.794;24.150;2023-04-24T09:15:57;23.40;55.80
21518;DHT22;61765;45.794;24.150;2023-04-24T09:24:05;23.40;55.30
21518;DHT22;61765;45.794;24.150;2023-04-24T09:32:23;23.60;55.20
21518;DHT22;61765;45.794;24.150;2023-04-24T09:40:34;23.60;55.50
21518;DHT22;61765;45.794;24.150;2023-04-24T09:48:45;24.30;52.80
21518;DHT22;61765;45.794;24.150;2023-04-24T09:56:52;24.80;51.60
21518;DHT22;61765;45.794;24.150;2023-04-24T10:05:00;25.20;51.40
21518;DHT22;61765;45.794;24.150;2023-04-24T10:13:07;25.30;51.10
21518;DHT22;61765;45.794;24.150;2023-04-24T10:21:15;26.00;50.10
21518;DHT22;61765;45.794;24.150;2023-04-24T11:29:59;34.40;42.00
21518;DHT22;61765;45.794;24.150;2023-04-24T11:38:06;33.90;38.30
21518;DHT22;61765;45.794;24.150;2023-04-24T11:46:20;30.50;41.90
21518;DHT22;61765;45.794;24.150;2023-04-24T11:54:26;29.60;43.40
21518;DHT22;61765;45.794;24.150;2023-04-24T12:02:34;29.50;44.50
21518;DHT22;61765;45.794;24.150;2023-04-24T12:10:41;30.90;42.00
21518;DHT22;61765;45.794;24.150;2023-04-24T12:18:51;29.20;43.10
21518;DHT22;61765;45.794;24.150;2023-04-24T12:26:57;27.40;46.50
21518;DHT22;61765;45.794;24.150;2023-04-24T12:35:07;28.50;45.70
21518;DHT22;61765;45.794;24.150;2023-04-24T12:43:14;30.10;43.50
21518;DHT22;61765;45.794;24.150;2023-04-24T12:51:24;32.60;40.60
21518;DHT22;61765;45.794;24.150;2023-04-24T12:59:30;35.40;37.60
21518;DHT22;61765;45.794;24.150;2023-04-24T13:07:38;31.40;40.60
21518;DHT22;61765;45.794;24.150;2023-04-24T13:15:43;28.50;43.80
21518;DHT22;61765;45.794;24.150;2023-04-24T13:23:51;26.40;47.00
21518;DHT22;61765;45.794;24.150;2023-04-24T13:31:57;25.50;48.50
21518;DHT22;61765;45.794;24.150;2023-04-24T13:40:06;25.10;49.10
21518;DHT22;61765;45.794;24.150;2023-04-24T13:48:11;24.40;50.50
21518;DHT22;61765;45.794;24.150;2023-04-24T13:56:20;24.80;50.30
21518;DHT22;61765;45.794;24.150;2023-04-24T14:04:26;25.20;52.80
21518;DHT22;61765;45.794;24.150;2023-04-24T14:12:34;25.00;53.40
21518;DHT22;61765;45.794;24.150;2023-04-24T14:20:40;24.30;54.80
21518;DHT22;61765;45.794;24.150;2023-04-24T14:28:48;24.50;54.70
21518;DHT22;61765;45.794;24.150;2023-04-24T14:37:08;24.40;54.20
21518;DHT22;61765;45.794;24.150;2023-04-24T14:45:17;24.30;54.20
21518;DHT22;61765;45.794;24.150;2023-04-24T14:53:23;24.90;53.60
21518;DHT22;61765;45.794;24.150;2023-04-24T15:01:31;25.30;52.90
21518;DHT22;61765;45.794;24.150;2023-04-24T15:09:37;25.80;50.70
21518;DHT22;61765;45.794;24.150;2023-04-24T15:17:45;25.00;50.30
21518;DHT22;61765;45.794;24.150;2023-04-24T15:25:50;25.00;50.50
21518;DHT22;61765;45.794;24.150;2023-04-24T15:33:59;24.60;52.40
21518;DHT22;61765;45.794;24.150;2023-04-24T15:42:19;25.00;52.70
21518;DHT22;61765;45.794;24.150;2023-04-24T15:50:31;25.20;53.00
21518;DHT22;61765;45.794;24.150;2023-04-24T15:58:37;25.10;54.40
21518;DHT22;61765;45.794;24.150;2023-04-24T16:06:45;24.90;54.80
21518;DHT22;61765;45.794;24.150;2023-04-24T16:14:50;24.70;56.80
21518;DHT22;61765;45.794;24.150;2023-04-24T16:22:58;24.80;55.80
21518;DHT22;61765;45.794;24.150;2023-04-24T16:31:05;24.40;54.80
21518;DHT22;61765;45.794;24.150;2023-04-24T16:39:23;24.30;55.10
21518;DHT22;61765;45.794;24.150;2023-04-24T16:47:29;23.70;55.10
21518;DHT22;61765;45.794;24.150;2023-04-24T16:55:38;23.80;56.70
21518;DHT22;61765;45.794;24.150;2023-04-24T17:03:45;23.50;58.50
21518;DHT22;61765;45.794;24.150;2023-04-24T17:11:54;23.00;59.60
21518;DHT22;61765;45.794;24.150;2023-04-24T17:20:01;23.10;60.20
21518;DHT22;61765;45.794;24.150;2023-04-24T17:28:27;22.50;61.30
21518;DHT22;61765;45.794;24.150;2023-04-24T17:36:32;22.60;61.30
21518;DHT22;61765;45.794;24.150;2023-04-24T17:44:42;22.60;61.20
21518;DHT22;61765;45.794;24.150;2023-04-24T17:52:49;22.20;62.20
21518;DHT22;61765;45.794;24.150;2023-04-24T18:00:57;22.30;61.40
21518;DHT22;61765;45.794;24.150;2023-04-24T18:09:03;22.40;61.60
21518;DHT22;61765;45.794;24.150;2023-04-24T18:17:11;22.00;59.20
21518;DHT22;61765;45.794;24.150;2023-04-24T18:25:17;21.90;59.40
21518;DHT22;61765;45.794;24.150;2023-04-24T18:33:31;21.60;59.30
21518;DHT22;61765;45.794;24.150;2023-04-24T18:41:36;21.50;59.00
21518;DHT22;61765;45.794;24.150;2023-04-24T18:49:44;21.70;58.80
21518;DHT22;61765;45.794;24.150;2023-04-24T18:57:50;21.10;59.90
21518;DHT22;61765;45.794;24.150;2023-04-24T19:05:58;20.90;60.40
21518;DHT22;61765;45.794;24.150;2023-04-24T19:14:04;21.00;61.10
21518;DHT22;61765;45.794;24.150;2023-04-24T19:22:12;20.70;61.70
21518;DHT22;61765;45.794;24.150;2023-04-24T19:30:18;21.20;60.90
21518;DHT22;61765;45.794;24.150;2023-04-24T19:38:26;21.40;59.90
21518;DHT22;61765;45.794;24.150;2023-04-24T19:46:32;21.30;60.40
21518;DHT22;61765;45.794;24.150;2023-04-24T19:54:40;20.90;60.30
21518;DHT22;61765;45.794;24.150;2023-04-24T20:02:45;21.10;60.20
21518;DHT22;61765;45.794;24.150;2023-04-24T20:10:54;21.00;61.10
21518;DHT22;61765;45.794;24.150;2023-04-24T20:18:59;21.40;60.80
21518;DHT22;61765;45.794;24.150;2023-04-24T20:27:07;21.50;61.00
21518;DHT22;61765;45.794;24.150;2023-04-24T20:35:15;21.60;61.60
21518;DHT22;61765;45.794;24.150;2023-04-24T20:43:24;21.40;63.20
21518;DHT22;61765;45.794;24.150;2023-04-24T20:51:30;20.70;65.40
21518;DHT22;61765;45.794;24.150;2023-04-24T20:59:39;21.00;65.50
21518;DHT22;61765;45.794;24.150;2023-04-24T21:07:45;21.10;66.20
21518;DHT22;61765;45.794;24.150;2023-04-24T21:15:58;21.20;65.90
21518;DHT22;61765;45.794;24.150;2023-04-24T21:24:04;21.30;66.30
21518;DHT22;61765;45.794;24.150;2023-04-24T21:32:12;21.10;66.80
21518;DHT22;61765;45.794;24.150;2023-04-24T21:40:18;21.10;67.90
21518;DHT22;61765;45.794;24.150;2023-04-24T21:48:27;21.10;68.20
21518;DHT22;61765;45.794;24.150;2023-04-24T21:56:32;21.00;69.00
21518;DHT22;61765;45.794;24.150;2023-04-24T22:04:40;21.10;69.10
21518;DHT22;61765;45.794;24.150;2023-04-24T22:12:46;21.00;70.60
21518;DHT22;61765;45.794;24.150;2023-04-24T22:20:55;20.90;71.90
21518;DHT22;61765;45.794;24.150;2023-04-24T22:29:02;20.70;73.40
21518;DHT22;61765;45.794;24.150;2023-04-24T22:37:10;20.60;73.90
21518;DHT22;61765;45.794;24.150;2023-04-24T22:45:16;20.60;74.50
21518;DHT22;61765;45.794;24.150;2023-04-24T22:53:27;20.60;75.20
21518;DHT22;61765;45.794;24.150;2023-04-24T23:01:33;20.30;77.20
21518;DHT22;61765;45.794;24.150;2023-04-24T23:09:41;19.90;80.40
21518;DHT22;61765;45.794;24.150;2023-04-24T23:17:46;19.50;80.30
21518;DHT22;61765;45.794;24.150;2023-04-24T23:25:55;19.50;81.10
21518;DHT22;61765;45.794;24.150;2023-04-24T23:34:01;19.50;81.40
21518;DHT22;61765;45.794;24.150;2023-04-24T23:42:09;19.40;81.40
21518;DHT22;61765;45.794;24.150;2023-04-24T23:50:15;19.50;82.40
21518;DHT22;61765;45.794;24.150;2023-04-24T23:58:23;19.30;83.00
